createdAt,value
2022-12-26T00:00:21.498Z,99731.78
2022-12-26T00:02:48.088Z,99731.53
2022-12-26T00:05:14.739Z,99724.56
2022-12-26T00:07:41.319Z,99726.19
2022-12-26T00:10:08.170Z,99721.72
2022-12-26T00:12:35.347Z,99718.91
2022-12-26T00:15:02.213Z,99706.78
2022-12-26T00:17:28.736Z,99702.34
2022-12-26T00:19:55.263Z,99704.78
2022-12-26T00:22:21.831Z,99712.59
2022-12-26T00:24:48.298Z,99703.94
2022-12-26T00:27:14.833Z,99710.63
2022-12-26T00:29:41.409Z,99712.19
2022-12-26T00:32:07.941Z,99707.00
2022-12-26T00:34:34.592Z,99705.13
2022-12-26T00:37:01.081Z,99711.16
2022-12-26T00:39:28.043Z,99699.31
2022-12-26T00:41:54.807Z,99705.19
2022-12-26T00:44:21.336Z,99711.19
2022-12-26T00:46:47.911Z,99710.53
2022-12-26T00:49:14.430Z,99711.28
2022-12-26T00:51:40.912Z,99709.59
2022-12-26T00:54:07.443Z,99711.47
2022-12-26T00:56:33.942Z,99717.13
2022-12-26T00:59:00.765Z,99713.78
2022-12-26T01:01:30.972Z,99710.38
2022-12-26T01:03:58.331Z,99709.59
2022-12-26T01:06:25.015Z,99718.03
2022-12-26T01:08:53.507Z,99714.50
2022-12-26T01:11:38.619Z,99707.72
2022-12-26T01:14:13.131Z,99712.88
2022-12-26T01:16:40.144Z,99713.84
2022-12-26T01:19:07.020Z,99710.88
2022-12-26T01:21:34.503Z,99722.00
2022-12-26T01:24:01.972Z,99731.41
2022-12-26T01:26:28.497Z,99724.69
2022-12-26T01:28:55.101Z,99724.75
2022-12-26T01:31:22.660Z,99725.53
2022-12-26T01:33:49.331Z,99733.34
2022-12-26T01:36:17.163Z,99743.69
2022-12-26T01:38:44.261Z,99744.78
2022-12-26T01:41:17.281Z,99741.47
2022-12-26T01:43:47.895Z,99750.00
2022-12-26T01:46:16.459Z,99757.06
2022-12-26T01:48:43.122Z,99761.25
2022-12-26T01:51:09.909Z,99758.75
2022-12-26T01:53:41.587Z,99759.75
2022-12-26T01:56:15.336Z,99766.63
2022-12-26T01:58:48.938Z,99769.22
2022-12-26T02:01:15.969Z,99777.78
2022-12-26T02:04:04.887Z,99781.75
2022-12-26T02:06:32.784Z,99780.88
2022-12-26T02:08:59.804Z,99789.53
2022-12-26T02:11:36.305Z,99793.13
2022-12-26T02:14:06.973Z,99807.81
2022-12-26T02:16:36.336Z,99811.94
2022-12-26T02:19:06.707Z,99811.91
2022-12-26T02:21:33.300Z,99808.38
2022-12-26T02:24:27.885Z,99801.38
2022-12-26T02:27:21.638Z,99805.75
2022-12-26T02:30:07.068Z,99802.97
2022-12-26T02:33:12.964Z,99801.09
2022-12-26T02:36:07.450Z,99797.69
2022-12-26T02:38:45.526Z,99790.88
2022-12-26T02:41:36.960Z,99791.53
2022-12-26T02:44:34.924Z,99800.09
2022-12-26T02:47:19.869Z,99814.56
2022-12-26T02:50:13.880Z,99814.38
2022-12-26T02:53:36.688Z,99818.44
2022-12-26T02:56:33.511Z,99821.03
2022-12-26T02:59:55.359Z,99814.03
2022-12-26T03:02:42.760Z,99805.34
2022-12-26T03:05:38.547Z,99806.41
2022-12-26T03:08:27.880Z,99807.88
2022-12-26T03:11:31.578Z,99807.03
2022-12-26T03:14:10.783Z,99809.75
2022-12-26T03:16:56.673Z,99802.81
2022-12-26T03:19:25.802Z,99804.63
2022-12-26T03:21:53.019Z,99802.94
2022-12-26T03:24:22.434Z,99805.34
2022-12-26T03:26:53.999Z,99800.06
2022-12-26T03:29:41.487Z,99806.81
2022-12-26T03:32:11.759Z,99807.06
2022-12-26T03:34:42.675Z,99815.28
2022-12-26T03:37:21.054Z,99810.16
2022-12-26T03:40:12.318Z,99794.81
2022-12-26T03:43:09.600Z,99791.50
2022-12-26T03:46:00.750Z,99786.44
2022-12-26T03:49:12.384Z,99779.75
2022-12-26T03:52:23.294Z,99773.81
2022-12-26T03:55:08.826Z,99778.22
2022-12-26T03:58:10.078Z,99780.75
2022-12-26T04:00:58.672Z,99775.66
2022-12-26T04:03:46.342Z,99776.41
2022-12-26T04:06:39.540Z,99773.81
2022-12-26T04:09:50.539Z,99776.28
2022-12-26T04:12:43.317Z,99781.22
2022-12-26T04:15:54.863Z,99777.81
2022-12-26T04:18:47.070Z,99771.72
2022-12-26T04:21:41.087Z,99774.41
2022-12-26T04:24:32.640Z,99776.91
2022-12-26T04:27:22.315Z,99773.44
2022-12-26T04:30:07.824Z,99777.59
2022-12-26T04:33:01.293Z,99793.13
2022-12-26T04:35:54.767Z,99787.31
2022-12-26T04:38:45.806Z,99787.94
2022-12-26T04:41:32.211Z,99792.28
2022-12-26T04:44:12.566Z,99795.56
2022-12-26T04:46:42.564Z,99795.63
2022-12-26T04:49:30.205Z,99795.72
2022-12-26T04:51:57.910Z,99798.25
2022-12-26T04:54:25.174Z,99790.50
2022-12-26T04:56:52.035Z,99792.94
2022-12-26T04:59:19.486Z,99801.56
2022-12-26T05:02:04.674Z,99791.47
2022-12-26T05:04:50.102Z,99792.94
2022-12-26T05:07:37.150Z,99798.00
2022-12-26T05:10:05.942Z,99797.91
2022-12-26T05:12:32.528Z,99803.84
2022-12-26T05:14:59.075Z,99812.34
2022-12-26T05:17:44.293Z,99815.81
2022-12-26T05:20:31.394Z,99817.34
2022-12-26T05:23:18.215Z,99816.38
2022-12-26T05:26:04.900Z,99819.13
2022-12-26T05:28:43.253Z,99819.84
2022-12-26T05:31:16.280Z,99819.25
2022-12-26T05:34:01.790Z,99829.47
2022-12-26T05:36:31.996Z,99830.28
2022-12-26T05:38:58.589Z,99834.22
2022-12-26T05:41:25.140Z,99837.50
2022-12-26T05:43:51.653Z,99840.94
2022-12-26T05:46:18.270Z,99836.75
2022-12-26T05:48:44.996Z,99838.47
2022-12-26T05:51:11.643Z,99842.50
2022-12-26T05:53:38.175Z,99839.06
2022-12-26T05:56:11.946Z,99848.28
2022-12-26T05:58:39.472Z,99845.53
2022-12-26T06:01:11.830Z,99848.91
2022-12-26T06:03:39.565Z,99861.69
2022-12-26T06:06:07.054Z,99863.22
2022-12-26T06:08:34.318Z,99869.94
2022-12-26T06:11:05.002Z,99861.41
2022-12-26T06:13:31.974Z,99859.53
2022-12-26T06:15:58.816Z,99866.28
2022-12-26T06:18:26.166Z,99867.13
2022-12-26T06:20:52.832Z,99861.44
2022-12-26T06:23:19.308Z,99874.25
2022-12-26T06:25:53.611Z,99875.31
2022-12-26T06:28:20.165Z,99880.75
2022-12-26T06:30:47.025Z,99880.28
2022-12-26T06:33:13.513Z,99877.13
2022-12-26T06:35:40.031Z,99888.78
2022-12-26T06:38:06.595Z,99872.03
2022-12-26T06:40:33.108Z,99867.00
2022-12-26T06:42:59.616Z,99869.72
2022-12-26T06:45:26.729Z,99870.66
2022-12-26T06:47:53.673Z,99875.91
2022-12-26T06:50:22.984Z,99878.50
2022-12-26T06:52:49.478Z,99878.53
2022-12-26T06:55:16.053Z,99885.66
2022-12-26T06:57:42.582Z,99877.94
2022-12-26T07:00:10.461Z,99883.22
2022-12-26T07:02:37.267Z,99897.47
2022-12-26T07:05:04.193Z,99894.75
2022-12-26T07:07:30.662Z,99904.25
2022-12-26T07:09:57.220Z,99920.44
2022-12-26T07:12:23.791Z,99923.00
2022-12-26T07:14:50.669Z,99925.03
2022-12-26T07:17:17.213Z,99929.41
2022-12-26T07:19:43.703Z,99934.75
2022-12-26T07:22:10.240Z,99939.84
2022-12-26T07:24:37.351Z,99939.78
2022-12-26T07:27:03.996Z,99948.31
2022-12-26T07:29:30.540Z,99954.28
2022-12-26T07:31:58.161Z,99958.53
2022-12-26T07:34:31.076Z,99960.97
2022-12-26T07:36:58.191Z,99963.88
2022-12-26T07:39:24.960Z,99968.22
2022-12-26T07:41:57.767Z,99974.25
2022-12-26T07:44:28.862Z,99970.16
2022-12-26T07:46:56.414Z,99971.16
2022-12-26T07:49:23.548Z,99974.38
2022-12-26T07:51:51.453Z,99977.00
2022-12-26T07:54:18.842Z,99978.81
2022-12-26T07:56:45.507Z,99984.56
2022-12-26T07:59:16.665Z,99995.13
2022-12-26T08:01:44.032Z,99996.97
2022-12-26T08:04:11.852Z,99997.47
2022-12-26T08:06:38.698Z,100009.41
2022-12-26T08:09:05.382Z,100016.06
2022-12-26T08:11:34.494Z,100016.84
2022-12-26T08:14:01.631Z,100027.16
2022-12-26T08:16:28.847Z,100030.28
2022-12-26T08:18:55.399Z,100045.16
2022-12-26T08:21:21.945Z,100056.94
2022-12-26T08:23:48.627Z,100065.13
2022-12-26T08:26:22.652Z,100073.69
2022-12-26T08:28:51.256Z,100078.34
2022-12-26T08:31:19.334Z,100085.84
2022-12-26T08:33:46.047Z,100095.78
2022-12-26T08:36:14.018Z,100097.44
2022-12-26T08:38:40.981Z,100107.16
2022-12-26T08:41:07.601Z,100111.31
2022-12-26T08:44:03.588Z,100126.28
2022-12-26T08:46:21.951Z,100128.25
2022-12-26T08:48:49.768Z,100142.19
2022-12-26T08:51:23.072Z,100148.16
2022-12-26T08:53:50.979Z,100170.66
2022-12-26T08:56:20.807Z,100164.88
2022-12-26T08:58:48.037Z,100174.50
2022-12-26T09:01:23.483Z,100181.34
2022-12-26T09:03:58.810Z,100184.78
2022-12-26T09:06:26.365Z,100207.50
2022-12-26T09:08:53.724Z,100202.22
2022-12-26T09:11:26.705Z,100207.00
2022-12-26T09:13:55.057Z,100212.94
2022-12-26T09:16:25.611Z,100222.19
2022-12-26T09:19:02.138Z,100226.78
2022-12-26T09:21:29.601Z,100246.50
2022-12-26T09:23:58.274Z,100242.94
2022-12-26T09:26:25.864Z,100248.00
2022-12-26T09:28:53.509Z,100243.09
2022-12-26T09:31:23.166Z,100245.69
2022-12-26T09:33:50.098Z,100255.16
2022-12-26T09:36:29.181Z,100247.72
2022-12-26T09:38:57.619Z,100244.34
2022-12-26T09:41:42.157Z,100247.28
2022-12-26T09:44:14.729Z,100249.88
2022-12-26T09:46:49.086Z,100252.84
2022-12-26T09:49:21.921Z,100259.09
2022-12-26T09:51:54.151Z,100272.06
2022-12-26T09:54:47.651Z,100276.34
2022-12-26T09:57:23.751Z,100277.91
2022-12-26T09:59:56.592Z,100280.47
2022-12-26T10:02:25.377Z,100290.19
2022-12-26T10:04:53.899Z,100292.22
2022-12-26T10:07:46.278Z,100305.34
2022-12-26T10:10:16.487Z,100314.97
2022-12-26T10:12:55.906Z,100316.91
2022-12-26T10:15:25.339Z,100320.94
2022-12-26T10:18:16.001Z,100320.03
2022-12-26T10:21:13.218Z,100332.09
2022-12-26T10:23:46.730Z,100335.03
2022-12-26T10:26:20.268Z,100336.06
2022-12-26T10:29:07.762Z,100341.41
2022-12-26T10:31:43.243Z,100349.97
2022-12-26T10:34:21.309Z,100351.88
2022-12-26T10:37:14.913Z,100352.06
2022-12-26T10:39:58.000Z,100354.00
2022-12-26T10:42:27.436Z,100358.59
2022-12-26T10:44:54.019Z,100363.97
2022-12-26T10:47:32.750Z,100373.66
2022-12-26T10:50:00.421Z,100372.22
2022-12-26T10:52:37.084Z,100380.50
2022-12-26T10:55:28.118Z,100387.41
2022-12-26T10:57:53.202Z,100418.88
2022-12-26T11:00:22.915Z,100438.81
2022-12-26T11:03:04.240Z,100464.16
2022-12-26T11:05:57.405Z,100481.81
2022-12-26T11:08:20.777Z,100513.13
2022-12-26T11:11:45.518Z,100539.09
2022-12-26T11:14:33.699Z,100573.88
2022-12-26T11:17:05.121Z,100598.94
2022-12-26T11:19:36.200Z,100616.44
2022-12-26T11:22:25.532Z,100627.69
2022-12-26T11:25:15.075Z,100658.56
2022-12-26T11:27:44.508Z,100657.00
2022-12-26T11:30:14.022Z,100666.28
2022-12-26T11:32:42.355Z,100682.03
2022-12-26T11:35:21.820Z,100681.84
2022-12-26T11:37:56.575Z,100679.13
2022-12-26T11:40:32.841Z,100674.19
2022-12-26T11:43:03.127Z,100669.03
2022-12-26T11:45:37.032Z,100665.38
2022-12-26T11:48:19.238Z,100655.25
2022-12-26T11:50:46.729Z,100657.28
2022-12-26T11:53:17.972Z,100663.44
2022-12-26T11:55:45.215Z,100669.69
2022-12-26T11:58:20.945Z,100677.78
2022-12-26T12:00:50.267Z,100688.41
2022-12-26T12:03:28.719Z,100694.50
2022-12-26T12:06:07.713Z,100695.72
2022-12-26T12:08:49.413Z,100707.94
2022-12-26T12:11:27.565Z,100709.91
2022-12-26T12:14:02.351Z,100716.00
2022-12-26T12:16:56.831Z,100711.66
2022-12-26T12:19:51.998Z,100718.13
2022-12-26T12:22:25.399Z,100718.50
2022-12-26T12:25:13.512Z,100707.03
2022-12-26T12:27:47.929Z,100712.22
2022-12-26T12:30:23.954Z,100720.53
2022-12-26T12:33:05.882Z,100724.31
2022-12-26T12:35:50.309Z,100712.09
2022-12-26T12:38:54.860Z,100729.16
2022-12-26T12:41:57.325Z,100730.16
2022-12-26T12:44:54.048Z,100727.31
2022-12-26T12:47:52.823Z,100718.72
2022-12-26T12:50:39.987Z,100718.63
2022-12-26T12:53:24.053Z,100708.16
2022-12-26T12:55:56.334Z,100703.91
2022-12-26T12:58:56.250Z,100695.53
2022-12-26T13:01:33.243Z,100680.06
2022-12-26T13:04:16.231Z,100683.06
2022-12-26T13:07:08.949Z,100684.91
2022-12-26T13:09:47.964Z,100693.50
2022-12-26T13:12:24.897Z,100701.00
2022-12-26T13:15:02.356Z,100698.34
2022-12-26T13:17:41.105Z,100695.75
2022-12-26T13:20:34.420Z,100699.97
2022-12-26T13:23:32.809Z,100690.31
2022-12-26T13:26:11.613Z,100685.09
2022-12-26T13:28:47.656Z,100689.97
2022-12-26T13:31:14.411Z,100687.31
2022-12-26T13:33:43.026Z,100696.63
2022-12-26T13:36:10.575Z,100698.19
2022-12-26T13:38:58.600Z,100704.16
2022-12-26T13:41:45.265Z,100718.09
2022-12-26T13:44:20.796Z,100711.13
2022-12-26T13:46:47.309Z,100711.94
2022-12-26T13:49:40.012Z,100704.28
2022-12-26T13:52:12.527Z,100709.44
2022-12-26T13:54:48.265Z,100703.69
2022-12-26T13:57:29.714Z,100698.66
2022-12-26T14:00:23.589Z,100703.19
2022-12-26T14:03:44.345Z,100704.38
2022-12-26T14:06:35.142Z,100717.31
2022-12-26T14:09:29.325Z,100717.47
2022-12-26T14:11:58.714Z,100726.09
2022-12-26T14:14:31.286Z,100731.19
2022-12-26T14:17:06.884Z,100727.78
2022-12-26T14:19:36.297Z,100732.13
2022-12-26T14:22:27.691Z,100732.25
2022-12-26T14:25:14.239Z,100744.06
2022-12-26T14:28:29.910Z,100739.81
2022-12-26T14:31:05.255Z,100748.31
2022-12-26T14:34:16.511Z,100761.28
2022-12-26T14:36:51.892Z,100759.38
2022-12-26T14:39:52.635Z,100770.59
2022-12-26T14:42:48.036Z,100772.16
2022-12-26T14:45:34.974Z,100780.88
2022-12-26T14:48:01.735Z,100777.31
2022-12-26T14:50:49.421Z,100785.00
2022-12-26T14:53:27.149Z,100774.66
2022-12-26T14:56:01.624Z,100778.09
2022-12-26T14:58:31.341Z,100787.78
2022-12-26T15:01:37.835Z,100783.50
2022-12-26T15:04:10.157Z,100781.59
2022-12-26T15:06:58.376Z,100785.16
2022-12-26T15:09:56.925Z,100777.47
2022-12-26T15:12:41.980Z,100784.25
2022-12-26T15:16:05.037Z,100781.59
2022-12-26T15:18:43.487Z,100788.31
2022-12-26T15:21:18.809Z,100787.31
2022-12-26T15:24:00.569Z,100796.75
2022-12-26T15:26:55.233Z,100805.41
2022-12-26T15:29:46.454Z,100808.03
2022-12-26T15:32:34.577Z,100817.75
2022-12-26T15:35:39.596Z,100822.19
2022-12-26T15:38:27.267Z,100809.13
2022-12-26T15:41:08.614Z,100805.53
2022-12-26T15:43:59.554Z,100812.25
2022-12-26T15:46:29.104Z,100805.03
2022-12-26T15:49:01.760Z,100802.34
2022-12-26T15:52:01.586Z,100794.41
2022-12-26T15:54:51.226Z,100801.09
2022-12-26T15:57:36.474Z,100796.63
2022-12-26T16:00:03.932Z,100808.72
2022-12-26T16:02:40.941Z,100813.03
2022-12-26T16:05:29.202Z,100822.00
2022-12-26T16:08:10.780Z,100832.59
2022-12-26T16:10:37.727Z,100835.03
2022-12-26T16:13:13.348Z,100838.28
2022-12-26T16:16:00.591Z,100836.34
2022-12-26T16:18:30.869Z,100843.31
2022-12-26T16:21:22.849Z,100843.34
2022-12-26T16:23:52.095Z,100846.59
2022-12-26T16:26:30.832Z,100852.56
2022-12-26T16:29:00.213Z,100845.59
2022-12-26T16:31:31.115Z,100846.47
2022-12-26T16:33:59.163Z,100855.66
2022-12-26T16:36:28.461Z,100859.72
2022-12-26T16:38:55.922Z,100863.78
2022-12-26T16:41:27.064Z,100859.13
2022-12-26T16:43:55.680Z,100855.53
2022-12-26T16:46:27.035Z,100862.41
2022-12-26T16:48:57.153Z,100858.84
2022-12-26T16:51:42.300Z,100863.94
2022-12-26T16:54:21.360Z,100867.53
2022-12-26T16:57:04.657Z,100866.88
2022-12-26T16:59:40.212Z,100876.53
2022-12-26T17:02:16.286Z,100881.59
2022-12-26T17:04:55.490Z,100875.28
2022-12-26T17:07:25.211Z,100887.09
2022-12-26T17:09:57.471Z,100892.34
2022-12-26T17:12:25.722Z,100891.28
2022-12-26T17:14:54.342Z,100881.59
2022-12-26T17:17:23.831Z,100878.75
2022-12-26T17:19:57.646Z,100875.22
2022-12-26T17:22:34.655Z,100847.19
2022-12-26T17:25:29.527Z,100830.22
2022-12-26T17:28:08.399Z,100826.47
2022-12-26T17:30:39.279Z,100811.81
2022-12-26T17:33:14.808Z,100808.44
2022-12-26T17:36:38.263Z,100801.44
2022-12-26T17:38:31.842Z,100788.56
2022-12-26T17:41:02.828Z,100781.19
2022-12-26T17:43:37.027Z,100765.75
2022-12-26T17:46:05.225Z,100753.44
2022-12-26T17:48:32.027Z,100755.13
2022-12-26T17:51:01.673Z,100737.97
2022-12-26T17:53:33.146Z,100731.06
2022-12-26T17:56:02.209Z,100725.22
2022-12-26T17:58:29.588Z,100727.53
2022-12-26T18:00:56.394Z,100730.53
2022-12-26T18:03:23.694Z,100718.84
2022-12-26T18:05:50.511Z,100718.59
2022-12-26T18:08:26.256Z,100711.00
2022-12-26T18:10:53.159Z,100715.34
2022-12-26T18:13:19.703Z,100717.41
2022-12-26T18:15:46.778Z,100708.25
2022-12-26T18:18:37.675Z,100710.88
2022-12-26T18:21:06.506Z,100702.66
2022-12-26T18:23:32.989Z,100691.81
2022-12-26T18:26:02.180Z,100702.22
2022-12-26T18:28:29.240Z,100694.81
2022-12-26T18:30:57.967Z,100691.66
2022-12-26T18:33:25.528Z,100700.31
2022-12-26T18:35:52.455Z,100702.25
2022-12-26T18:38:21.865Z,100701.28
2022-12-26T18:40:53.380Z,100702.75
2022-12-26T18:43:20.257Z,100701.06
2022-12-26T18:45:46.797Z,100697.66
2022-12-26T18:48:15.332Z,100670.25
2022-12-26T18:50:42.805Z,100673.53
2022-12-26T18:53:09.935Z,100663.19
2022-12-26T18:55:36.779Z,100658.38
2022-12-26T18:58:03.337Z,100657.91
2022-12-26T19:00:30.483Z,100664.00
2022-12-26T19:02:57.143Z,100653.63
2022-12-26T19:05:27.380Z,100655.59
2022-12-26T19:07:54.817Z,100648.03
2022-12-26T19:10:26.619Z,100653.47
2022-12-26T19:12:53.505Z,100671.19
2022-12-26T19:15:20.315Z,100667.25
2022-12-26T19:17:47.142Z,100672.44
2022-12-26T19:20:22.116Z,100686.56
2022-12-26T19:22:49.633Z,100677.84
2022-12-26T19:25:16.884Z,100678.91
2022-12-26T19:27:45.149Z,100687.28
2022-12-26T19:30:12.497Z,100691.50
2022-12-26T19:32:39.263Z,100701.69
2022-12-26T19:35:06.792Z,100712.66
2022-12-26T19:37:33.378Z,100711.69
2022-12-26T19:40:00.375Z,100710.28
2022-12-26T19:42:26.946Z,100702.41
2022-12-26T19:44:53.522Z,100695.81
2022-12-26T19:47:20.665Z,100697.53
2022-12-26T19:49:47.213Z,100708.41
2022-12-26T19:52:13.803Z,100717.81
2022-12-26T19:54:40.335Z,100728.78
2022-12-26T19:57:07.014Z,100723.44
2022-12-26T19:59:33.572Z,100727.09
2022-12-26T20:02:00.616Z,100724.41
2022-12-26T20:04:27.412Z,100730.28
2022-12-26T20:06:53.976Z,100730.81
2022-12-26T20:09:20.493Z,100727.19
2022-12-26T20:11:54.070Z,100720.47
2022-12-26T20:14:22.170Z,100718.72
2022-12-26T20:17:08.766Z,100705.59
2022-12-26T20:19:36.539Z,100702.28
2022-12-26T20:22:04.372Z,100694.09
2022-12-26T20:24:31.257Z,100693.56
2022-12-26T20:26:58.404Z,100692.56
2022-12-26T20:29:25.048Z,100697.22
2022-12-26T20:31:55.115Z,100705.66
2022-12-26T20:34:22.043Z,100700.50
2022-12-26T20:36:48.597Z,100700.81
2022-12-26T20:39:18.111Z,100699.38
2022-12-26T20:41:45.144Z,100692.56
2022-12-26T20:44:16.251Z,100687.78
2022-12-26T20:46:43.333Z,100685.31
2022-12-26T20:49:10.528Z,100695.38
2022-12-26T20:51:39.403Z,100697.91
2022-12-26T20:54:07.603Z,100682.38
2022-12-26T20:56:35.754Z,100689.13
2022-12-26T20:59:03.709Z,100706.09
2022-12-26T21:01:30.644Z,100712.16
2022-12-26T21:03:58.621Z,100703.38
2022-12-26T21:06:29.369Z,100716.03
2022-12-26T21:08:57.663Z,100714.06
2022-12-26T21:11:26.308Z,100730.84
2022-12-26T21:13:59.545Z,100718.06
2022-12-26T21:16:37.627Z,100725.91
2022-12-26T21:19:10.912Z,100719.88
2022-12-26T21:21:43.586Z,100716.34
2022-12-26T21:24:16.294Z,100712.06
2022-12-26T21:26:43.676Z,100718.84
2022-12-26T21:29:25.476Z,100721.84
2022-12-26T21:31:53.724Z,100721.47
2022-12-26T21:34:22.328Z,100713.22
2022-12-26T21:37:07.926Z,100720.91
2022-12-26T21:39:37.031Z,100708.03
2022-12-26T21:42:06.126Z,100709.56
2022-12-26T21:44:32.850Z,100700.81
2022-12-26T21:46:59.443Z,100708.41
2022-12-26T21:49:26.117Z,100721.16
2022-12-26T21:51:52.708Z,100717.97
2022-12-26T21:54:42.191Z,100713.13
2022-12-26T21:57:13.153Z,100708.53
2022-12-26T21:59:58.103Z,100709.66
2022-12-26T22:02:55.242Z,100696.56
2022-12-26T22:05:24.863Z,100702.88
2022-12-26T22:08:00.094Z,100707.19
2022-12-26T22:10:48.524Z,100704.63
2022-12-26T22:13:15.495Z,100718.84
2022-12-26T22:16:05.715Z,100720.28
2022-12-26T22:18:39.079Z,100736.69
2022-12-26T22:21:14.838Z,100737.81
2022-12-26T22:23:43.294Z,100730.06
2022-12-26T22:26:12.129Z,100731.00
2022-12-26T22:28:39.724Z,100716.19
2022-12-26T22:31:07.025Z,100718.16
2022-12-26T22:33:33.713Z,100726.41
2022-12-26T22:36:07.533Z,100736.72
2022-12-26T22:38:35.898Z,100741.09
2022-12-26T22:41:03.102Z,100748.66
2022-12-26T22:43:32.149Z,100748.75
2022-12-26T22:45:59.000Z,100747.47
2022-12-26T22:48:25.570Z,100740.75
2022-12-26T22:50:54.899Z,100733.81
2022-12-26T22:53:26.034Z,100743.13
2022-12-26T22:55:57.739Z,100746.72
2022-12-26T22:58:24.282Z,100759.22
2022-12-26T23:00:50.885Z,100756.72
2022-12-26T23:03:19.312Z,100761.09
2022-12-26T23:05:46.970Z,100750.19
2022-12-26T23:08:21.338Z,100737.00
2022-12-26T23:10:48.892Z,100740.66
2022-12-26T23:13:16.126Z,100741.34
2022-12-26T23:16:09.359Z,100760.19
2022-12-26T23:19:04.237Z,100740.34
2022-12-26T23:21:39.744Z,100742.22
2022-12-26T23:24:12.466Z,100738.66
2022-12-26T23:26:41.591Z,100737.47
2022-12-26T23:29:29.752Z,100742.63
2022-12-26T23:31:56.472Z,100754.44
2022-12-26T23:34:23.110Z,100745.53
2022-12-26T23:36:49.618Z,100740.19
2022-12-26T23:39:16.343Z,100750.69
2022-12-26T23:41:43.564Z,100754.13
2022-12-26T23:44:10.195Z,100754.63
2022-12-26T23:46:36.888Z,100758.09
2022-12-26T23:49:03.465Z,100769.78
2022-12-26T23:51:30.004Z,100762.41
2022-12-26T23:53:56.525Z,100745.53
2022-12-26T23:56:23.284Z,100729.09
2022-12-26T23:58:49.796Z,100717.31
